Time;durP1;ratioP1;P1;durP2;ratioP2;P2;SDS_P1;SDS_P2;PMS_P1;PMS_P2;Temp;Humidity;BMP_temperature;BMP_pressure;BME280_temperature;BME280_humidity;BME280_pressure;Samples;Min_cycle;Max_cycle;Signal;HPM_P1;HPM_P2
2023/01/14 00:01:13;;;;;;;4.50;2.13;;;;;;;6.74;62.53;99383.31;5109236;28;20040;-71
2023/01/14 00:03:40;;;;;;;3.13;2.13;;;;;;;6.72;62.44;99390.41;5108077;28;20046;-71
2023/01/14 00:06:07;;;;;;;5.03;2.50;;;;;;;6.72;62.43;99387.78;5108587;28;20044;-72
2023/01/14 00:08:35;;;;;;;4.60;2.17;;;;;;;6.71;62.57;99386.06;5109102;28;20046;-71
2023/01/14 00:11:05;;;;;;;8.20;6.15;;;;;;;5.19;63.34;99154.25;5109142;28;20040;-69
2023/01/14 00:13:34;;;;;;;8.45;5.25;;;;;;;6.81;63.45;99380.47;5108541;28;20115;-72
2023/01/14 00:16:02;;;;;;;3.55;2.30;;;;;;;6.79;62.83;99383.13;5108698;28;20234;-71
2023/01/14 00:18:31;;;;;;;5.93;2.75;;;;;;;6.77;62.69;99378.84;5108940;28;20066;-71
2023/01/14 00:21:00;;;;;;;4.80;2.50;;;;;;;6.73;62.67;99373.69;5090826;28;20349;-71
2023/01/14 00:23:28;;;;;;;2.83;2.08;;;;;;;6.71;62.39;99372.91;5107469;28;20036;-71
2023/01/14 00:25:55;;;;;;;3.28;2.10;;;;;;;6.69;62.49;99366.84;5107357;28;20035;-71
2023/01/14 00:28:23;;;;;;;3.53;2.20;;;;;;;6.56;62.39;99346.31;5107279;28;20047;-71
2023/01/14 00:30:50;;;;;;;3.78;2.10;;;;;;;6.67;62.49;99371.31;5107373;28;20042;-71
2023/01/14 00:33:17;;;;;;;3.75;2.45;;;;;;;6.64;62.48;99374.06;5107567;28;20040;-70
2023/01/14 00:35:44;;;;;;;3.60;1.80;;;;;;;6.64;62.55;99384.59;5108141;28;20036;-70
2023/01/14 00:38:11;;;;;;;3.92;2.30;;;;;;;6.64;62.33;99383.72;5107992;28;20334;-71
2023/01/14 00:40:37;;;;;;;4.13;2.25;;;;;;;6.62;62.33;99378.53;5107229;28;20145;-70
2023/01/14 00:43:04;;;;;;;4.68;2.20;;;;;;;6.61;62.43;99376.81;5108488;28;20058;-71
2023/01/14 00:45:32;;;;;;;3.67;1.90;;;;;;;6.63;62.40;99379.38;5108321;28;20193;-71
2023/01/14 00:47:59;;;;;;;3.40;1.90;;;;;;;6.09;62.42;99368.25;5108070;28;20239;-71
2023/01/14 00:50:26;;;;;;;2.50;1.73;;;;;;;6.62;62.37;99389.06;5107762;28;20040;-70
2023/01/14 00:52:53;;;;;;;4.25;2.10;;;;;;;6.61;62.45;99387.34;5107403;28;20039;-69
2023/01/14 00:55:19;;;;;;;4.45;2.45;;;;;;;6.61;62.38;99389.97;5108048;28;20107;-69
2023/01/14 00:57:46;;;;;;;3.03;2.15;;;;;;;6.61;62.37;99389.97;5107665;28;20075;-69
2023/01/14 01:00:14;;;;;;;5.93;2.22;;;;;;;6.63;62.39;99395.19;5107852;28;20051;-70
2023/01/14 01:02:42;;;;;;;3.10;2.30;;;;;;;6.62;62.41;99404.00;5108011;28;20066;-69
2023/01/14 01:05:09;;;;;;;3.67;2.00;;;;;;;6.62;62.37;99394.31;5107674;28;20160;-69
2023/01/14 01:07:36;;;;;;;3.80;1.98;;;;;;;6.62;62.46;99404.00;5107917;28;20106;-69
2023/01/14 01:10:03;;;;;;;5.18;2.35;;;;;;;6.61;62.43;99394.38;5107839;28;20051;-69
2023/01/14 01:12:30;;;;;;;3.13;2.05;;;;;;;6.40;62.44;99367.97;5107839;28;20043;-69
2023/01/14 01:14:56;;;;;;;5.15;2.20;;;;;;;6.61;62.54;99402.28;5107835;28;20039;-69
2023/01/14 01:17:35;;;;;;;3.45;2.00;;;;;;;6.61;62.51;99412.81;5107212;28;20052;-69
2023/01/14 01:20:03;;;;;;;4.78;2.00;;;;;;;6.59;62.50;99412.88;5107199;28;20039;-69
2023/01/14 01:22:30;;;;;;;2.97;2.30;;;;;;;6.60;62.45;99424.25;5107199;28;20295;-70
2023/01/14 01:24:57;;;;;;;4.22;2.00;;;;;;;6.60;62.58;99430.38;5106938;28;20050;-70
2023/01/14 01:27:24;;;;;;;5.05;2.42;;;;;;;6.60;62.54;99435.66;5107581;28;20046;-70
2023/01/14 01:29:51;;;;;;;4.18;1.80;;;;;;;6.60;62.51;99422.50;5107195;28;20040;-70
2023/01/14 01:32:17;;;;;;;4.78;2.22;;;;;;;6.60;62.46;99429.53;5107194;28;20044;-70
2023/01/14 01:34:44;;;;;;;3.80;2.22;;;;;;;6.27;62.40;99389.53;5106065;28;20036;-70
2023/01/14 01:37:12;;;;;;;5.10;2.30;;;;;;;6.59;62.63;99420.78;5107138;28;20219;-71
2023/01/14 01:39:39;;;;;;;3.10;2.00;;;;;;;6.58;62.63;99423.47;5105578;28;20036;-70
2023/01/14 01:42:06;;;;;;;3.40;2.00;;;;;;;6.59;62.59;99425.19;5107130;28;20292;-71
2023/01/14 01:45:25;;;;;;;2.97;2.13;;;;;;;6.57;62.78;99421.75;5106095;28;20335;-71
2023/01/14 01:47:55;;;;;;;3.97;2.20;;;;;;;6.54;62.77;99419.22;5106000;28;20043;-70
2023/01/14 01:50:22;;;;;;;2.55;1.90;;;;;;;6.54;62.85;99409.56;5107095;28;20036;-69
2023/01/14 01:52:51;;;;;;;3.15;1.92;;;;;;;6.54;62.91;99422.72;5105912;28;20035;-70
2023/01/14 01:55:19;;;;;;;3.70;2.28;;;;;;;6.54;62.84;99420.09;5106513;28;20188;-70
2023/01/14 01:57:55;;;;;;;3.08;2.10;;;;;;;6.54;63.03;99427.13;5106517;28;20036;-69
2023/01/14 02:00:23;;;;;;;4.20;2.35;;;;;;;6.26;62.97;99391.31;5105704;28;20421;-69
2023/01/14 02:02:52;;;;;;;3.47;2.40;;;;;;;6.53;63.04;99431.53;5106410;28;20036;-69
2023/01/14 02:05:21;;;;;;;3.55;2.00;;;;;;;6.52;63.12;99440.34;5106656;28;20107;-70
2023/01/14 02:07:47;;;;;;;3.15;2.47;;;;;;;6.24;63.11;99394.91;5105382;28;20047;-69
2023/01/14 02:10:18;;;;;;;3.28;2.22;;;;;;;6.05;63.10;99358.75;5105326;28;20165;-70
2023/01/14 02:13:11;;;;;;;3.72;2.10;;;;;;;6.37;63.53;99417.22;5105368;28;20218;-69
2023/01/14 02:15:51;;;;;;;5.15;2.10;;;;;;;6.47;63.56;99444.94;5106193;28;20044;-70
2023/01/14 02:18:39;;;;;;;3.75;2.03;;;;;;;6.47;63.59;99446.69;5106112;28;20060;-70
2023/01/14 02:21:14;;;;;;;3.13;1.80;;;;;;;6.46;63.66;99451.09;5106552;28;20048;-70
2023/01/14 02:24:17;;;;;;;2.83;1.90;;;;;;;6.45;63.64;99459.94;5105748;28;20317;-69
2023/01/14 02:27:11;;;;;;;3.67;2.45;;;;;;;6.45;63.75;99448.53;5105103;28;20115;-70
2023/01/14 02:30:13;;;;;;;3.15;1.90;;;;;;;6.43;63.69;99456.50;5106083;28;20040;-70
2023/01/14 02:32:47;;;;;;;4.50;2.00;;;;;;;6.43;63.52;99452.09;5095494;28;20063;-69
2023/01/14 02:35:27;;;;;;;4.25;2.38;;;;;;;6.45;63.51;99444.13;5105951;28;20040;-68
2023/01/14 02:38:03;;;;;;;3.22;1.90;;;;;;;6.43;63.48;99454.72;5105849;28;20058;-69
2023/01/14 02:40:35;;;;;;;3.72;1.77;;;;;;;6.44;63.44;99439.78;5106063;28;20268;-68
2023/01/14 02:46:01;;;;;;;3.60;1.85;;;;;;;6.20;63.48;99402.06;5104669;28;20048;-68
2023/01/14 02:48:31;;;;;;;2.38;1.70;;;;;;;6.42;63.51;99457.41;5106188;28;20111;-70
2023/01/14 02:50:59;;;;;;;3.13;1.95;;;;;;;6.42;63.25;99437.19;5105668;28;20040;-69
2023/01/14 02:53:26;;;;;;;3.72;2.17;;;;;;;6.43;63.39;99432.78;5105869;28;20058;-69
2023/01/14 02:55:53;;;;;;;3.13;2.03;;;;;;;6.42;63.29;99437.19;5106113;28;20051;-69
2023/01/14 02:58:53;;;;;;;6.53;2.20;;;;;;;6.41;63.36;99421.47;5106126;28;20046;-68
2023/01/14 03:01:33;;;;;;;3.08;2.00;;;;;;;6.39;63.34;99432.06;5105616;28;20043;-68
2023/01/14 03:04:32;;;;;;;3.72;1.77;;;;;;;6.17;63.36;99401.31;5107196;28;20070;-69
2023/01/14 03:07:10;;;;;;;3.30;1.80;;;;;;;6.40;63.35;99432.91;5107286;28;20111;-68
2023/01/14 03:09:46;;;;;;;3.03;1.65;;;;;;;6.39;63.34;99434.69;5109924;28;20101;-69
2023/01/14 03:12:19;;;;;;;3.38;1.88;;;;;;;5.60;63.39;99326.22;5109728;28;20055;-69
2023/01/14 03:14:51;;;;;;;4.15;2.50;;;;;;;6.38;63.34;99443.50;5109644;28;20203;-69
2023/01/14 03:17:26;;;;;;;6.00;1.80;;;;;;;6.38;63.34;99451.41;5110062;28;20062;-69
2023/01/14 03:20:00;;;;;;;3.58;2.03;;;;;;;6.36;63.36;99466.38;5109827;28;20048;-70
2023/01/14 03:22:31;;;;;;;4.90;2.00;;;;;;;6.35;63.32;99461.19;5109932;28;20052;-69
2023/01/14 03:24:59;;;;;;;4.07;2.03;;;;;;;6.11;63.34;99415.53;5108577;28;20040;-69
2023/01/14 03:27:32;;;;;;;2.95;1.90;;;;;;;6.37;63.21;99469.88;5108514;28;20177;-69
2023/01/14 03:30:03;;;;;;;2.55;1.70;;;;;;;6.35;63.13;99467.31;5109655;28;20044;-70
2023/01/14 03:32:37;;;;;;;4.13;2.28;;;;;;;6.34;63.18;99467.34;5109876;28;20044;-70
2023/01/14 03:35:09;;;;;;;4.68;2.33;;;;;;;6.35;63.16;99471.69;5108363;28;20044;-68
2023/01/14 03:37:39;;;;;;;2.90;1.70;;;;;;;5.70;63.22;99396.81;5109213;28;20070;-69
2023/01/14 03:40:11;;;;;;;3.58;1.77;;;;;;;6.33;63.20;99474.41;5108304;28;20051;-70
2023/01/14 03:42:44;;;;;;;2.70;1.65;;;;;;;6.32;63.08;99477.94;5109104;28;20044;-70
2023/01/14 03:45:16;;;;;;;3.70;2.35;;;;;;;6.32;63.12;99487.59;5109213;28;20054;-70
2023/01/14 03:47:44;;;;;;;2.92;1.75;;;;;;;6.31;63.01;99491.16;5108995;28;20218;-69
2023/01/14 03:50:13;;;;;;;2.22;1.58;;;;;;;6.31;62.98;99507.81;5108916;28;20046;-70
2023/01/14 03:52:57;;;;;;;3.13;2.00;;;;;;;6.31;62.98;99513.06;5107941;28;20044;-70
2023/01/14 03:55:29;;;;;;;4.85;2.15;;;;;;;6.30;62.93;99514.00;5109101;28;20207;-69
2023/01/14 03:58:04;;;;;;;3.70;1.80;;;;;;;6.28;63.07;99496.53;5108790;28;20046;-70
2023/01/14 04:00:34;;;;;;;3.67;1.75;;;;;;;6.29;62.98;99514.03;5109348;28;20036;-70
2023/01/14 04:03:05;;;;;;;3.42;1.83;;;;;;;5.31;62.79;99366.66;5108726;28;20040;-69
2023/01/14 04:05:32;;;;;;;3.92;2.10;;;;;;;6.29;62.87;99508.78;5108956;28;20123;-70
2023/01/14 04:08:01;;;;;;;3.40;1.90;;;;;;;6.27;62.84;99519.34;5109186;28;20157;-70
2023/01/14 04:10:28;;;;;;;3.13;2.03;;;;;;;6.28;62.68;99514.94;5108967;28;20044;-71
2023/01/14 04:15:39;;;;;;;2.63;1.70;;;;;;;6.04;62.59;99483.31;5107684;28;20177;-70
2023/01/14 04:18:06;;;;;;;3.45;2.15;;;;;;;6.24;62.71;99532.63;5107539;28;20040;-70
2023/01/14 04:20:32;;;;;;;3.10;2.20;;;;;;;6.24;62.58;99537.03;5108325;28;20058;-70
2023/01/14 04:23:01;;;;;;;3.58;1.80;;;;;;;6.23;62.51;99538.81;5108871;28;20056;-70
2023/01/14 04:25:27;;;;;;;2.90;1.80;;;;;;;6.22;62.34;99539.72;5107350;28;20044;-70
2023/01/14 04:27:54;;;;;;;3.72;1.95;;;;;;;6.22;62.36;99547.59;5108710;28;20043;-70
2023/01/14 04:30:21;;;;;;;2.38;1.75;;;;;;;6.22;62.25;99544.97;5108379;28;20296;-70
2023/01/14 04:32:48;;;;;;;3.58;2.28;;;;;;;6.22;62.39;99550.25;5108409;28;20207;-70
2023/01/14 04:35:15;;;;;;;3.20;2.10;;;;;;;6.17;62.21;99541.66;5108665;28;20035;-70
2023/01/14 04:37:42;;;;;;;4.07;2.45;;;;;;;6.18;62.39;99547.75;5108031;28;20353;-70
2023/01/14 04:40:11;;;;;;;4.03;2.00;;;;;;;6.17;62.27;99552.16;5107482;28;20085;-68
2023/01/14 04:42:37;;;;;;;4.88;2.20;;;;;;;6.16;62.37;99553.09;5107378;28;20097;-70
2023/01/14 04:45:05;;;;;;;3.97;2.35;;;;;;;6.18;62.31;99566.19;5108249;28;20367;-68
2023/01/14 04:47:32;;;;;;;3.97;1.95;;;;;;;5.91;62.37;99510.97;5107214;28;20207;-68
2023/01/14 04:50:30;;;;;;;3.75;2.00;;;;;;;6.16;62.41;99560.97;5107829;28;20050;-68
2023/01/14 04:52:46;;;;;;;5.45;2.88;;;;;;;5.89;62.40;99517.19;5106840;28;20089;-68
2023/01/14 04:55:14;;;;;;;2.63;1.70;;;;;;;5.88;62.37;99518.94;5107956;28;20058;-68
2023/01/14 04:57:41;;;;;;;4.68;2.10;;;;;;;6.14;62.33;99559.31;5106887;28;20036;-68
2023/01/14 05:00:10;;;;;;;2.95;1.80;;;;;;;6.14;62.38;99556.69;5107626;28;20044;-68
2023/01/14 05:02:36;;;;;;;4.63;2.00;;;;;;;6.12;62.35;99562.00;5107886;28;20318;-69
2023/01/14 05:05:03;;;;;;;3.67;1.80;;;;;;;6.12;62.32;99564.63;5107559;28;20103;-69
2023/01/14 05:07:30;;;;;;;5.13;2.85;;;;;;;6.13;62.39;99555.81;5106574;28;20048;-70
2023/01/14 05:09:57;;;;;;;4.82;2.45;;;;;;;6.14;62.38;99556.69;5107860;28;20032;-70
2023/01/14 05:12:25;;;;;;;3.10;1.90;;;;;;;6.12;62.33;99553.25;5107634;28;20054;-69
2023/01/14 05:14:52;;;;;;;6.03;2.38;;;;;;;6.15;62.35;99559.25;5107710;28;20296;-70
2023/01/14 05:17:18;;;;;;;2.80;1.85;;;;;;;6.05;62.31;99545.56;5107355;28;20299;-70
2023/01/14 05:19:45;;;;;;;6.25;2.63;;;;;;;6.14;62.21;99561.94;5107209;28;20051;-70
2023/01/14 05:22:12;;;;;;;3.83;1.85;;;;;;;6.13;62.42;99561.09;5107750;28;20048;-69
2023/01/14 05:24:39;;;;;;;4.00;1.75;;;;;;;6.12;62.26;99575.16;5107189;28;20371;-69
2023/01/14 05:27:06;;;;;;;3.55;2.15;;;;;;;5.83;62.38;99525.28;5106980;28;20093;-69
2023/01/14 05:29:34;;;;;;;4.15;1.90;;;;;;;6.13;62.59;99576.88;5106140;28;20044;-70
2023/01/14 05:32:00;;;;;;;4.75;2.00;;;;;;;6.16;62.59;99583.81;5107522;28;20231;-69
2023/01/14 05:34:29;;;;;;;3.60;1.85;;;;;;;6.18;62.50;99584.63;5107505;28;20040;-70
2023/01/14 05:36:56;;;;;;;6.85;2.95;;;;;;;6.18;62.65;99569.69;5106868;28;20048;-70
2023/01/14 05:39:22;;;;;;;2.97;1.90;;;;;;;6.19;62.53;99575.81;5107029;28;20048;-69
2023/01/14 05:47:19;;;;;;;;;;;;;;;6.12;62.34;99585.69;5107536;28;20390;-69
2023/01/14 05:49:46;;;;;;;3.83;2.35;;;;;;;6.14;62.37;99593.53;5107167;28;19916;-68
2023/01/14 05:52:12;;;;;;;4.03;1.90;;;;;;;6.17;62.37;99599.53;5106686;28;20046;-70
2023/01/14 05:54:39;;;;;;;3.58;2.10;;;;;;;6.17;62.52;99604.81;5106552;28;20051;-70
2023/01/14 05:57:12;;;;;;;6.07;2.00;;;;;;;6.17;62.13;99617.97;5106519;28;20051;-70
2023/01/14 05:59:41;;;;;;;5.10;2.17;;;;;;;6.16;62.25;99618.00;5107012;28;20062;-70
2023/01/14 06:07:37;;;;;;;7.68;2.88;;;;;;;6.17;62.21;99609.22;5075654;28;20051;-70
2023/01/14 06:10:04;;;;;;;3.60;2.10;;;;;;;6.17;62.28;99615.34;5106206;28;20036;-69
2023/01/14 06:12:57;;;;;;;5.60;2.45;;;;;;;6.17;62.12;99609.22;5106399;28;20035;-70
2023/01/14 06:15:29;;;;;;;4.47;2.17;;;;;;;6.14;62.16;99611.94;5106785;28;20174;-69
2023/01/14 06:17:58;;;;;;;4.72;2.35;;;;;;;1.56;61.85;98833.06;5106446;28;20036;-68
2023/01/14 06:20:25;;;;;;;4.20;1.95;;;;;;;6.18;62.04;99617.06;5105281;28;20056;-69
2023/01/14 06:22:55;;;;;;;4.13;2.25;;;;;;;6.19;61.99;99624.03;5105997;28;20046;-69
2023/01/14 06:25:21;;;;;;;4.50;1.90;;;;;;;6.19;61.76;99624.03;5105327;28;20044;-69
2023/01/14 06:27:48;;;;;;;5.45;3.03;;;;;;;6.20;61.72;99617.84;5106014;28;20055;-70
2023/01/14 06:30:15;;;;;;;3.13;2.15;;;;;;;6.20;61.63;99611.72;5106470;28;20032;-69
2023/01/14 06:32:44;;;;;;;3.78;2.10;;;;;;;6.20;61.58;99611.72;5105034;28;20295;-69
2023/01/14 06:35:10;;;;;;;3.25;2.33;;;;;;;6.20;61.58;99620.50;5106043;28;20052;-69
2023/01/14 06:37:37;;;;;;;4.80;2.40;;;;;;;5.86;61.58;99556.75;5106031;28;20043;-69
2023/01/14 06:40:05;;;;;;;4.80;2.20;;;;;;;6.19;61.67;99615.28;5105548;28;20103;-69
2023/01/14 06:42:32;;;;;;;3.88;2.10;;;;;;;6.17;61.53;99607.44;5105613;28;20052;-69
2023/01/14 06:44:59;;;;;;;2.75;1.88;;;;;;;6.17;61.58;99614.47;5105522;28;20086;-69
2023/01/14 06:47:25;;;;;;;3.90;2.30;;;;;;;6.16;61.54;99615.38;5106025;28;20044;-70
2023/01/14 06:49:54;;;;;;;7.55;2.30;;;;;;;6.15;61.65;99613.66;5106187;28;20145;-70
2023/01/14 06:52:21;;;;;;;3.67;2.40;;;;;;;6.14;61.35;99633.00;5105716;28;20046;-70
2023/01/14 06:54:47;;;;;;;5.30;2.10;;;;;;;6.14;61.51;99614.56;5105663;28;20040;-70
2023/01/14 06:57:14;;;;;;;3.63;2.05;;;;;;;6.12;61.47;99622.50;5104725;28;20085;-71
2023/01/14 06:59:41;;;;;;;3.35;2.15;;;;;;;6.13;61.44;99612.84;5105915;28;20295;-70
2023/01/14 07:02:11;;;;;;;3.58;2.38;;;;;;;5.87;61.47;99576.88;5106187;28;20055;-70
2023/01/14 07:04:38;;;;;;;4.97;2.13;;;;;;;6.10;61.49;99627.84;5104608;28;20046;-70
2023/01/14 07:07:07;;;;;;;3.90;2.28;;;;;;;6.09;61.36;99617.34;5106196;28;20191;-70
2023/01/14 07:09:34;;;;;;;4.20;2.40;;;;;;;5.35;61.36;99494.41;5104740;28;20047;-69
2023/01/14 07:12:01;;;;;;;4.03;2.10;;;;;;;6.10;61.25;99626.97;5104614;28;20036;-70
2023/01/14 07:14:27;;;;;;;5.20;3.55;;;;;;;6.09;61.32;99623.47;5105737;28;20044;-70
2023/01/14 07:16:54;;;;;;;3.58;2.22;;;;;;;6.11;61.36;99631.31;5105559;28;20044;-70
2023/01/14 07:19:21;;;;;;;4.88;2.33;;;;;;;5.86;61.15;99576.00;5105955;28;20054;-70
2023/01/14 07:21:48;;;;;;;3.67;2.10;;;;;;;6.13;61.31;99618.97;5105395;28;20177;-70
2023/01/14 07:24:16;;;;;;;4.80;2.10;;;;;;;6.09;61.25;99618.22;5105814;28;20070;-70
2023/01/14 07:26:43;;;;;;;3.55;2.45;;;;;;;6.13;61.22;99623.38;5105379;28;20047;-70
2023/01/14 07:29:10;;;;;;;4.53;2.40;;;;;;;5.39;61.16;99502.16;5104501;28;20328;-70
2023/01/14 07:31:37;;;;;;;5.45;2.00;;;;;;;6.14;61.05;99615.44;5104387;28;20036;-70
2023/01/14 07:34:04;;;;;;;5.35;2.60;;;;;;;6.16;60.99;99623.28;5104455;28;20093;-71
2023/01/14 07:36:31;;;;;;;5.93;2.30;;;;;;;6.16;60.73;99610.97;5105796;28;20042;-70
2023/01/14 07:38:58;;;;;;;5.78;2.50;;;;;;;6.17;60.50;99611.84;5105784;28;20062;-70
2023/01/14 07:41:26;;;;;;;6.18;2.50;;;;;;;6.17;60.32;99610.06;5105713;28;20086;-70
2023/01/14 07:43:54;;;;;;;3.67;2.22;;;;;;;6.21;60.32;99616.94;5105593;28;20048;-70
2023/01/14 07:46:21;;;;;;;4.60;2.15;;;;;;;5.99;60.45;99582.59;5103993;28;20043;-70
2023/01/14 07:48:47;;;;;;;3.67;2.00;;;;;;;6.23;60.07;99616.91;5105692;28;20042;-70
2023/01/14 07:51:20;;;;;;;3.85;2.10;;;;;;;6.24;60.09;99626.50;5107521;28;20032;-69
2023/01/14 07:53:47;;;;;;;4.53;2.28;;;;;;;4.54;60.15;99336.72;5109100;28;20044;-70
2023/01/14 07:56:14;;;;;;;3.42;2.00;;;;;;;6.26;60.20;99627.31;5109364;28;20039;-70
2023/01/14 07:58:42;;;;;;;8.45;2.75;;;;;;;6.27;60.10;99635.16;5109072;28;20292;-70
2023/01/14 08:01:10;;;;;;;4.57;2.15;;;;;;;6.02;60.13;99590.38;5109085;28;20055;-70
2023/01/14 08:03:38;;;;;;;4.82;2.60;;;;;;;6.32;60.15;99635.88;5107781;28;20036;-70
2023/01/14 08:06:06;;;;;;;4.75;2.55;;;;;;;6.45;59.88;99635.47;5109189;28;20056;-70
2023/01/14 08:08:34;;;;;;;4.28;2.17;;;;;;;6.58;59.52;99631.50;5109172;28;20098;-70
2023/01/14 08:11:01;;;;;;;3.97;2.28;;;;;;;6.73;59.01;99629.19;5108662;28;20051;-70
2023/01/14 08:13:28;;;;;;;6.32;2.42;;;;;;;5.32;58.43;99361.34;5109026;28;20047;-70
2023/01/14 08:15:57;;;;;;;6.05;1.95;;;;;;;6.63;58.35;99556.69;5108949;28;20097;-70
2023/01/14 08:18:24;;;;;;;2.80;1.80;;;;;;;7.17;58.28;99624.13;5108508;28;20051;-70
2023/01/14 08:20:57;;;;;;;3.40;2.10;;;;;;;7.11;56.92;99584.81;5108359;28;20303;-70
2023/01/14 08:23:24;;;;;;;6.43;2.38;;;;;;;7.49;57.39;99620.31;5108539;28;20058;-70
2023/01/14 08:25:50;;;;;;;3.92;2.40;;;;;;;7.64;57.06;99617.06;5107372;28;20040;-70
2023/01/14 08:28:18;;;;;;;3.85;1.95;;;;;;;7.79;56.79;99614.75;5107402;28;20123;-70
2023/01/14 08:30:44;;;;;;;3.85;1.98;;;;;;;7.37;56.32;99534.63;5108617;28;20043;-70
2023/01/14 08:33:13;;;;;;;4.22;2.30;;;;;;;8.06;56.11;99623.34;5107319;28;20047;-70
2023/01/14 08:35:40;;;;;;;3.83;1.95;;;;;;;8.19;55.88;99630.69;5108129;28;20046;-71
2023/01/14 08:38:07;;;;;;;3.08;2.08;;;;;;;8.33;55.60;99628.34;5108518;28;20060;-70
2023/01/14 08:40:34;;;;;;;3.45;2.20;;;;;;;8.44;54.96;99638.47;5108397;28;20036;-71
2023/01/14 08:43:01;;;;;;;3.38;1.95;;;;;;;8.34;54.88;99598.38;5107865;28;20243;-70
2023/01/14 08:45:28;;;;;;;3.92;2.15;;;;;;;8.40;54.82;99596.41;5106757;28;20321;-70
2023/01/14 08:47:55;;;;;;;6.38;2.78;;;;;;;8.68;55.25;99632.16;5107783;28;20054;-70
2023/01/14 08:50:23;;;;;;;3.67;1.80;;;;;;;8.33;54.38;99570.25;5107941;28;20044;-70
2023/01/14 08:52:49;;;;;;;3.75;2.00;;;;;;;8.87;54.69;99649.84;5106784;28;20314;-70
2023/01/14 08:55:17;;;;;;;3.45;2.15;;;;;;;8.68;54.31;99595.16;5107495;28;20040;-70
2023/01/14 08:57:43;;;;;;;3.67;2.20;;;;;;;9.06;53.77;99640.19;5106693;28;20044;-70
2023/01/14 09:00:11;;;;;;;5.88;2.50;;;;;;;9.17;53.91;99640.56;5108039;28;20059;-70
2023/01/14 09:02:38;;;;;;;4.47;2.15;;;;;;;9.27;54.00;99636.59;5106022;28;20187;-70
2023/01/14 09:05:05;;;;;;;5.70;2.47;;;;;;;9.34;53.50;99639.81;5107116;28;20214;-70
2023/01/14 09:18:31;;;;;;;3.97;2.17;;;;;;;9.48;53.25;99602.19;5107657;28;20044;-70
2023/01/14 09:20:58;;;;;;;4.20;1.75;;;;;;;9.94;52.81;99657.31;5107212;28;20048;-70
2023/01/14 09:23:26;;;;;;;4.05;1.90;;;;;;;9.83;52.26;99627.00;5107679;28;20043;-71
2023/01/14 09:25:53;;;;;;;4.65;2.25;;;;;;;10.14;52.57;99658.16;5106266;28;20192;-70
2023/01/14 09:28:20;;;;;;;5.25;2.50;;;;;;;10.19;52.16;99659.63;5107406;28;20169;-69
2023/01/14 09:30:47;;;;;;;4.15;2.35;;;;;;;10.25;52.39;99655.81;5107948;28;20036;-70
2023/01/14 09:33:14;;;;;;;4.28;1.83;;;;;;;10.39;52.34;99660.44;5109072;28;20055;-70
2023/01/14 09:35:41;;;;;;;4.05;2.00;;;;;;;9.06;52.02;99415.47;5109571;28;20043;-69
2023/01/14 09:38:07;;;;;;;6.35;1.75;;;;;;;10.64;51.80;99647.69;5107632;28;20063;-70
2023/01/14 09:40:38;;;;;;;5.30;2.45;;;;;;;10.76;49.94;99647.06;5105659;28;20047;-70
2023/01/14 09:43:06;;;;;;;9.82;3.08;;;;;;;10.90;51.28;99649.03;5105902;28;20040;-70
2023/01/14 09:45:35;;;;;;;4.13;1.88;;;;;;;11.00;50.98;99652.06;5106584;28;20074;-70
2023/01/14 09:48:10;;;;;;;4.82;1.90;;;;;;;11.05;49.97;99642.06;5106101;28;20044;-69
2023/01/14 09:50:49;;;;;;;4.93;2.00;;;;;;;11.13;48.63;99645.19;5106830;28;20255;-70
2023/01/14 09:53:28;;;;;;;4.10;1.98;;;;;;;11.21;48.71;99645.63;5105903;28;20036;-70
2023/01/14 09:56:02;;;;;;;4.78;2.00;;;;;;;11.26;49.02;99640.94;5106918;28;20203;-70
2023/01/14 09:58:36;;;;;;;4.82;1.75;;;;;;;11.29;48.13;99631.94;5106857;28;20040;-71
2023/01/14 10:01:13;;;;;;;3.72;1.80;;;;;;;11.38;48.09;99628.81;5107159;28;20070;-70
2023/01/14 10:03:48;;;;;;;4.13;1.60;;;;;;;11.46;48.71;99639.88;5105696;28;20140;-70
2023/01/14 10:06:18;;;;;;;4.25;2.08;;;;;;;11.54;49.53;99627.03;5107042;28;20207;-70
2023/01/14 10:08:48;;;;;;;4.18;1.90;;;;;;;11.43;48.92;99598.44;5106870;28;20300;-70
2023/01/14 10:11:17;;;;;;;4.28;2.00;;;;;;;11.70;48.81;99633.22;5106773;28;20036;-70
2023/01/14 10:13:49;;;;;;;4.15;1.98;;;;;;;11.72;48.54;99619.84;5105981;28;20050;-71
2023/01/14 10:16:21;;;;;;;3.42;1.90;;;;;;;11.82;47.69;99636.97;5106413;28;20071;-71
2023/01/14 10:18:55;;;;;;;4.93;2.70;;;;;;;11.87;47.38;99614.53;5106150;28;20042;-70
2023/01/14 10:21:28;;;;;;;2.80;1.75;;;;;;;11.91;46.43;99601.09;5105311;28;20056;-70
2023/01/14 10:23:55;;;;;;;5.13;2.20;;;;;;;11.95;48.11;99611.44;5106580;28;20036;-70
2023/01/14 10:26:31;;;;;;;3.92;1.85;;;;;;;7.31;45.65;98820.41;5106394;28;20113;-70
2023/01/14 10:29:03;;;;;;;3.63;1.73;;;;;;;10.62;47.79;99363.31;5105971;28;20058;-71
2023/01/14 10:31:34;;;;;;;4.50;2.20;;;;;;;11.51;47.79;99529.84;5105801;28;20103;-72
2023/01/14 10:34:01;;;;;;;3.15;1.65;;;;;;;11.56;47.43;99500.38;5106400;28;20046;-70
2023/01/14 10:36:31;;;;;;;4.63;2.05;;;;;;;12.14;47.64;99582.06;5105948;28;20203;-70
2023/01/14 10:39:01;;;;;;;4.28;2.05;;;;;;;12.02;47.77;99538.47;5106216;28;20059;-71
2023/01/14 10:44:28;;;;;;;4.13;2.13;;;;;;;12.38;47.55;99575.34;5063881;28;20083;-71
2023/01/14 10:46:58;;;;;;;4.65;2.10;;;;;;;12.43;46.91;99567.94;5096581;28;20054;-69
2023/01/14 10:49:34;;;;;;;3.72;1.65;;;;;;;11.70;45.38;99454.47;5105592;28;20052;-71
2023/01/14 10:52:02;;;;;;;3.42;1.90;;;;;;;12.53;47.15;99578.91;5105212;28;20058;-71
2023/01/14 10:54:29;;;;;;;3.05;1.63;;;;;;;12.26;46.78;99522.91;5105939;28;20360;-72
2023/01/14 10:57:01;;;;;;;4.25;1.73;;;;;;;12.60;46.23;99574.06;5104964;28;20048;-71
2023/01/14 10:59:40;;;;;;;3.53;2.05;;;;;;;12.62;43.76;99562.41;5105215;28;20054;-71
2023/01/14 11:02:22;;;;;;;3.33;1.92;;;;;;;12.66;43.41;99555.09;5105651;28;20039;-70
2023/01/14 11:04:49;;;;;;;3.25;1.63;;;;;;;12.12;46.60;99493.63;5105838;28;20036;-70
2023/01/14 11:07:25;;;;;;;4.05;1.73;;;;;;;12.79;44.26;99548.06;5105541;28;20098;-71
2023/01/14 11:09:53;;;;;;;5.18;2.42;;;;;;;12.87;46.56;99555.59;5104305;28;20043;-71
2023/01/14 11:12:29;;;;;;;3.92;1.67;;;;;;;13.01;43.91;99552.94;5105837;28;20050;-71
2023/01/14 11:14:56;;;;;;;3.15;1.73;;;;;;;12.19;46.17;99397.53;5105938;28;20115;-70
2023/01/14 11:17:26;;;;;;;5.97;2.72;;;;;;;11.46;45.47;99252.41;5105062;28;20123;-70
2023/01/14 11:20:13;;;;;;;2.85;1.70;;;;;;;12.36;45.44;99393.00;5105644;28;20040;-70
2023/01/14 11:22:40;;;;;;;3.42;1.70;;;;;;;13.25;45.17;99539.91;5104457;28;20040;-71
2023/01/14 11:25:22;;;;;;;3.92;1.70;;;;;;;13.27;41.20;99533.53;5106121;28;20036;-71
2023/01/14 11:27:52;;;;;;;4.15;2.03;;;;;;;13.26;44.25;99530.97;5109837;28;20299;-70
2023/01/14 11:30:21;;;;;;;3.13;1.60;;;;;;;13.28;44.70;99529.06;5108442;28;20195;-70
2023/01/14 11:32:51;;;;;;;5.95;2.10;;;;;;;13.22;44.80;99524.13;5109148;28;20040;-71
2023/01/14 11:35:21;;;;;;;3.67;1.90;;;;;;;11.95;44.43;99371.56;5109503;28;20079;-70
2023/01/14 11:37:49;;;;;;;5.47;2.00;;;;;;;13.15;45.08;99513.00;5108517;28;20046;-71
2023/01/14 11:40:24;;;;;;;3.83;1.95;;;;;;;13.21;42.46;99517.09;5109057;28;20048;-71
2023/01/14 11:42:52;;;;;;;4.35;1.85;;;;;;;13.20;44.62;99505.59;5108928;28;20259;-71
2023/01/14 11:45:21;;;;;;;3.40;1.60;;;;;;;13.33;44.44;99513.66;5107918;28;20055;-70
2023/01/14 11:47:49;;;;;;;4.53;2.10;;;;;;;12.56;42.74;99402.41;5108889;28;20036;-70
2023/01/14 11:50:19;;;;;;;2.50;1.50;;;;;;;13.39;44.23;99495.47;5109197;28;20032;-70
2023/01/14 11:52:59;;;;;;;3.92;2.00;;;;;;;13.43;40.99;99501.47;5109039;28;20043;-71
2023/01/14 11:55:28;;;;;;;3.83;1.88;;;;;;;12.99;43.67;99488.31;5108734;28;20058;-71
2023/01/14 11:58:09;;;;;;;3.65;1.90;;;;;;;12.97;41.26;99413.94;5109344;28;20063;-72
2023/01/14 12:00:38;;;;;;;2.70;1.80;;;;;;;13.22;43.55;99452.25;5108763;28;20040;-70
2023/01/14 12:03:12;;;;;;;4.35;2.55;;;;;;;13.48;43.05;99483.41;5108644;28;20040;-71
2023/01/14 12:05:41;;;;;;;5.32;1.90;;;;;;;13.46;43.52;99474.66;5108645;28;20127;-71
2023/01/14 12:08:15;;;;;;;3.72;1.85;;;;;;;10.83;42.80;99028.13;5107775;28;20086;-71
2023/01/14 12:10:47;;;;;;;4.10;2.33;;;;;;;13.54;43.13;99466.19;5108063;28;20086;-69
2023/01/14 12:18:58;;;;;;;3.78;2.10;;;;;;;13.67;42.25;99451.09;5108630;28;20051;-70
2023/01/14 12:21:31;;;;;;;4.72;1.85;;;;;;;13.71;42.35;99448.13;5108369;28;20089;-71
2023/01/14 12:24:02;;;;;;;3.47;1.63;;;;;;;13.78;42.23;99444.09;5108537;28;20279;-71
2023/01/14 12:26:35;;;;;;;2.60;2.05;;;;;;;13.82;41.82;99442.09;5108317;28;20062;-71
2023/01/14 12:29:09;;;;;;;2.80;1.95;;;;;;;13.80;41.74;99446.66;5107128;28;20035;-71